Polar Sea — WYE7524 — position and weather

sailwx.info

Track history (hours):
 
Tides and Currents Weather Stations Pressure Air Temp Water Temp Dewpoint Dewpoint Depression Visibility Wind Speed Wind Dir Waves Ship Positions

Polar Sea

Owner: WARNESS, VIDAR, SEATTLE, WA. More information available from US FCC via Universal Licensing System and Coast Guard Vessel Documentation Center.

Last reported at 2018-Jun-18 04:45 UTC. Time now 2018-Jul-20 14:05 UTC.
Position N 51°11' W 130°14'.
Warning: this ship's position is 32 days out of date.

Length 31 m; draft 4 m.

Type: Fishing. MMSI: 303457000.

Date/timePositionNaut miles runAvg speedWind from/ knotsBaromVisibWave heightAir tempDewpointWater temp
2018-Jun-18 04:45N 51°11' W 130°14'3 8.4
2018-Jun-18 04:23N 51°09' W 130°10'156 8.1
2018-Jun-17 09:08N 49°25' W 127°09'1 8.4
2018-Jun-17 08:59N 49°24' W 127°07'4 8.5
2018-Jun-17 08:30N 49°22' W 127°02'4 8.3
2018-Jun-17 08:00N 49°19' W 126°57'4 8.2
2018-Jun-17 07:30N 49°17' W 126°52'4 8.3
2018-Jun-17 06:58N 49°14' W 126°47'4 8.7
2018-Jun-17 06:31N 49°12' W 126°41'4 8.5
2018-Jun-17 06:01N 49°10' W 126°36'4 8.3
2018-Jun-17 05:30N 49°09' W 126°30'4 8.6
2018-Jun-17 05:00N 49°06' W 126°24'4 8.7
2018-Jun-17 04:30N 49°03' W 126°19'5 9.0
2018-Jun-17 03:58N 49°01' W 126°13'4 9.0
2018-Jun-17 03:30N 48°58' W 126°08'4 8.8
2018-Jun-17 03:01N 48°56' W 126°03'5 9.0
2018-Jun-17 02:31N 48°53' W 125°57'5 9.2
2018-Jun-17 02:01N 48°50' W 125°52'5 9.0
2018-Jun-17 01:30N 48°48' W 125°46'5 9.0
2018-Jun-17 01:00N 48°46' W 125°39'4 8.8
2018-Jun-17 00:31N 48°45' W 125°33'4 8.8
2018-Jun-17 00:01N 48°44' W 125°27'5 9.0
2018-Jun-16 23:31N 48°42' W 125°20'4 8.6
2018-Jun-16 23:00N 48°41' W 125°14'4 8.6
2018-Jun-16 22:30N 48°39' W 125°08'4 8.4
2018-Jun-16 22:00N 48°38' W 125°02'4 8.6
2018-Jun-16 21:31N 48°36' W 124°56'5 8.9
2018-Jun-16 20:59N 48°35' W 124°49'5 9.4
2018-Jun-16 20:30N 48°33' W 124°43'5 9.9
2018-Jun-16 20:01N 48°31' W 124°36'510.5
2018-Jun-16 19:31N 48°29' W 124°29'610.9
2018-Jun-16 19:00N 48°27' W 124°21'611.9
2018-Jun-16 18:30N 48°25' W 124°13'612.2
2018-Jun-16 18:00N 48°22' W 124°05'712.1
2018-Jun-16 17:28N 48°20' W 123°55'3412.6
2018-Jun-16 14:44N 48°13' W 123°04'411.7
2018-Jun-16 14:24N 48°13' W 122°58'510.9
2018-Jun-16 13:55N 48°12' W 122°51'13 8.9
2018-Jun-16 12:27N 48°03' W 122°37'5 9.1
2018-Jun-16 11:51N 47°58' W 122°33'3 9.6
2018-Jun-16 11:31N 47°56' W 122°29'5 9.7
2018-Jun-16 11:00N 47°51' W 122°27'510.0
2018-Jun-16 10:31N 47°46' W 122°25'510.0
2018-Jun-16 10:01N 47°41' W 122°25'2 3.8
2018-Jun-16 09:31N 47°40' W 122°23'2 4.6
2018-Jun-16 09:01N 47°39' W 122°21'1 1.6
2018-Jun-16 08:30N 47°38' W 122°20'0 0.0
2018-Jun-16 08:01N 47°38' W 122°20'0 0.0
2018-Jun-16 07:31N 47°38' W 122°20'0 0.0
2018-Jun-16 07:00N 47°38' W 122°20'0 0.0
2018-Jun-16 06:30N 47°38' W 122°20'0 0.0
2018-Jun-16 06:01N 47°38' W 122°20'0 0.0
2018-Jun-16 05:30N 47°38' W 122°20'0 0.0
2018-Jun-16 05:01N 47°38' W 122°20'0 0.0
2018-Jun-16 04:31N 47°38' W 122°20'0 0.0
2018-Jun-16 04:00N 47°38' W 122°20'0 0.0
2018-Jun-16 03:30N 47°38' W 122°20'0 0.0
2018-Jun-16 03:01N 47°38' W 122°20'0 0.0
2018-Jun-16 02:31N 47°38' W 122°20'0 0.0
2018-Jun-16 02:00N 47°38' W 122°20'0 0.0
2018-Jun-16 01:30N 47°38' W 122°20'0 0.0
2018-Jun-16 01:01N 47°38' W 122°20'0 0.0
2018-Jun-16 00:30N 47°38' W 122°20'0 0.0
2018-Jun-16 00:00N 47°38' W 122°20'0 0.0
2018-Jun-15 23:30N 47°38' W 122°20'0 0.0
2018-Jun-15 23:00N 47°38' W 122°20'0 0.0
2018-Jun-15 22:30N 47°38' W 122°20'0 0.0
2018-Jun-15 22:00N 47°38' W 122°20'0 0.0
2018-Jun-15 21:30N 47°38' W 122°20'0 0.0
2018-Jun-15 21:00N 47°38' W 122°20'0 0.0
2018-Jun-15 20:30N 47°38' W 122°20'0 0.0
2018-Jun-15 20:00N 47°38' W 122°20'0 0.0
2018-Jun-15 19:30N 47°38' W 122°20'0 0.0
2018-Jun-15 19:00N 47°38' W 122°20'0 0.0
2018-Jun-15 18:30N 47°38' W 122°20'0 0.0
2018-Jun-15 18:00N 47°38' W 122°20'0 0.0
2018-Jun-15 17:30N 47°38' W 122°20'0 0.0
2018-Jun-15 17:00N 47°38' W 122°20'0 0.0
2018-Jun-15 16:30N 47°38' W 122°20'0 0.0
2018-Jun-15 16:00N 47°38' W 122°20'0 0.0
2018-Jun-15 15:30N 47°38' W 122°20'0 0.0
2018-Jun-15 15:00N 47°38' W 122°20'0 0.0
2018-Jun-15 14:30N 47°38' W 122°20'0 0.0
2018-Jun-15 14:00N 47°38' W 122°20'0 0.0
2018-Jun-15 13:30N 47°38' W 122°20'0 0.0
2018-Jun-15 13:00N 47°38' W 122°20'0 0.0
2018-Jun-15 12:30N 47°38' W 122°20'0 0.0
2018-Jun-15 12:00N 47°38' W 122°20'0 0.0
2018-Jun-15 11:30N 47°38' W 122°20'0 0.0
2018-Jun-15 11:00N 47°38' W 122°20'0 0.0
2018-Jun-15 10:30N 47°38' W 122°20'0 0.0
2018-Jun-15 10:00N 47°38' W 122°20'0 0.0
2018-Jun-15 09:30N 47°38' W 122°20'0 0.0
2018-Jun-15 09:00N 47°38' W 122°20'0 0.0
2018-Jun-15 08:30N 47°38' W 122°20'0 0.0
2018-Jun-15 08:00N 47°38' W 122°20'0 0.0
2018-Jun-15 07:30N 47°38' W 122°20'0 0.0
2018-Jun-15 07:00N 47°38' W 122°20'0 0.0
2018-Jun-15 06:30N 47°38' W 122°20'0 0.0
2018-Jun-15 06:00N 47°38' W 122°20'0 0.0
2018-Jun-15 05:30N 47°38' W 122°20'0 0.0
2018-Jun-15 05:00N 47°38' W 122°20'0 0.0
2018-Jun-15 04:30N 47°38' W 122°20'0 0.0
2018-Jun-15 04:00N 47°38' W 122°20'0 0.0
2018-Jun-15 03:30N 47°38' W 122°20'0 0.0
2018-Jun-15 03:00N 47°38' W 122°20'0 0.0
2018-Jun-15 02:30N 47°38' W 122°20'0 0.0
2018-Jun-15 02:00N 47°38' W 122°20'0 0.0
2018-Jun-15 01:30N 47°38' W 122°20'0 0.0
2018-Jun-15 01:00N 47°38' W 122°20'0 0.0
2018-Jun-15 00:30N 47°38' W 122°20'0 0.0
2018-Jun-15 00:00N 47°38' W 122°20'0 0.0
2018-Jun-14 23:30N 47°38' W 122°20'0 0.0
2018-Jun-14 23:00N 47°38' W 122°20'0 0.0
2018-Jun-14 22:30N 47°38' W 122°20'0 0.0
2018-Jun-14 22:00N 47°38' W 122°20'0 0.0
2018-Jun-14 21:30N 47°38' W 122°20'0 0.0
2018-Jun-14 21:00N 47°38' W 122°20'0 0.0
2018-Jun-14 20:30N 47°38' W 122°20'0 0.0
2018-Jun-14 20:00N 47°38' W 122°20'0 0.0
2018-Jun-14 19:30N 47°38' W 122°20'0 0.0
2018-Jun-14 19:00N 47°38' W 122°20'0 0.0
2018-Jun-14 18:30N 47°38' W 122°20'0 0.0
2018-Jun-14 18:00N 47°38' W 122°20'0 0.0
2018-Jun-14 17:30N 47°38' W 122°20'0 0.0
2018-Jun-14 17:00N 47°38' W 122°20'0 0.0
2018-Jun-14 16:30N 47°38' W 122°20'0 0.0
2018-Jun-14 16:00N 47°38' W 122°20'0 0.0
2018-Jun-14 15:30N 47°38' W 122°20'0 0.0
2018-Jun-14 15:00N 47°38' W 122°20'0 0.0
2018-Jun-14 14:30N 47°38' W 122°20'0 0.0
2018-Jun-14 14:00N 47°38' W 122°20'0 0.0
2018-Jun-14 13:30N 47°38' W 122°20'0 0.0
2018-Jun-14 13:00N 47°38' W 122°20'0 0.0
2018-Jun-14 12:30N 47°38' W 122°20'0 0.0
2018-Jun-14 12:00N 47°38' W 122°20'0 0.0
2018-Jun-14 11:30N 47°38' W 122°20'0 0.0
2018-Jun-14 11:00N 47°38' W 122°20'0 0.0
2018-Jun-14 10:30N 47°38' W 122°20'0 0.0
2018-Jun-14 10:00N 47°38' W 122°20'0 0.0
2018-Jun-14 09:30N 47°38' W 122°20'0 0.0
2018-Jun-14 09:00N 47°38' W 122°20'0 0.0
2018-Jun-14 08:30N 47°38' W 122°20'0 0.0
2018-Jun-14 08:00N 47°38' W 122°20'0 0.0
2018-Jun-14 07:31N 47°38' W 122°20'0 0.0
2018-Jun-14 07:00N 47°38' W 122°20'0 0.0
2018-Jun-14 06:30N 47°38' W 122°20'0 0.0
2018-Jun-14 06:00N 47°38' W 122°20'0 0.0
2018-Jun-14 05:31N 47°38' W 122°20'0 0.0
2018-Jun-14 05:00N 47°38' W 122°20'0 0.0
2018-Jun-14 04:30N 47°38' W 122°20'0 0.0
2018-Jun-14 04:00N 47°38' W 122°20'0 0.0
2018-Jun-14 03:31N 47°38' W 122°20'0 0.0
2018-Jun-14 03:00N 47°38' W 122°20'0 0.0
2018-Jun-14 02:30N 47°38' W 122°20'0 0.0
2018-Jun-14 02:01N 47°38' W 122°20'0 0.0
2018-Jun-14 01:30N 47°38' W 122°20'0 0.0
2018-Jun-14 01:01N 47°38' W 122°20'0 0.0
2018-Jun-14 00:31N 47°38' W 122°20'0 0.0
2018-Jun-14 00:00N 47°38' W 122°20'0 0.0
2018-Jun-13 23:31N 47°38' W 122°20'0 0.0
2018-Jun-13 23:00N 47°38' W 122°20'0 0.0
2018-Jun-13 22:30N 47°38' W 122°20'0 0.0
2018-Jun-13 22:01N 47°38' W 122°20'0 0.0
2018-Jun-13 21:30N 47°38' W 122°20'0 0.0
2018-Jun-13 21:00N 47°38' W 122°20'0 0.0
2018-Jun-13 20:30N 47°38' W 122°20'0 0.0
2018-Jun-13 20:00N 47°38' W 122°20'0 0.0
2018-Jun-13 19:31N 47°38' W 122°20'0 0.0
2018-Jun-13 19:01N 47°38' W 122°20'0 0.0
2018-Jun-13 18:30N 47°38' W 122°20'0 0.0
2018-Jun-13 18:00N 47°38' W 122°20'0 0.0
2018-Jun-13 17:30N 47°38' W 122°20'0 0.0
2018-Jun-13 17:00N 47°38' W 122°20'0 0.0
2018-Jun-13 16:30N 47°38' W 122°20'0 0.0
2018-Jun-13 16:00N 47°38' W 122°20'0 0.0
2018-Jun-13 15:30N 47°38' W 122°20'0 0.0
2018-Jun-13 15:00N 47°38' W 122°20'0 0.0
2018-Jun-13 14:30N 47°38' W 122°20'0 0.0
2018-Jun-13 13:59N 47°38' W 122°20'0 0.0
2018-Jun-13 13:30N 47°38' W 122°20'0 0.0
2018-Jun-13 13:00N 47°38' W 122°20'0 0.0
2018-Jun-13 12:30N 47°38' W 122°20'0 0.0
2018-Jun-13 12:00N 47°38' W 122°20'0 0.0
2018-Jun-13 11:30N 47°38' W 122°20'0 0.0
2018-Jun-13 11:00N 47°38' W 122°20'0 0.0
2018-Jun-13 10:30N 47°38' W 122°20'0 0.0
2018-Jun-13 10:00N 47°38' W 122°20'0 0.0
2018-Jun-13 09:30N 47°38' W 122°20'0 0.0
2018-Jun-13 09:00N 47°38' W 122°20'0 0.0
2018-Jun-13 08:30N 47°38' W 122°20'0 0.0
2018-Jun-13 08:00N 47°38' W 122°20'0 0.0
2018-Jun-13 07:30N 47°38' W 122°20'0 0.0
2018-Jun-13 07:00N 47°38' W 122°20'0 0.0
2018-Jun-13 06:30N 47°38' W 122°20'0 0.0
2018-Jun-13 06:00N 47°38' W 122°20'0 0.0
2018-Jun-13 05:30N 47°38' W 122°20'0 0.0
2018-Jun-13 05:00N 47°38' W 122°20'0 0.0
2018-Jun-13 04:30N 47°38' W 122°20'0 0.0
2018-Jun-13 04:00N 47°38' W 122°20'0 0.0
2018-Jun-13 03:30N 47°38' W 122°20'0 0.0
2018-Jun-13 03:00N 47°38' W 122°20'0 0.0
2018-Jun-13 02:30N 47°38' W 122°20'0 0.0
2018-Jun-13 02:00N 47°38' W 122°20'0 0.0
2018-Jun-13 01:30N 47°38' W 122°20'0 0.0
2018-Jun-13 01:00N 47°38' W 122°20'0 0.0
2018-Jun-13 00:30N 47°38' W 122°20'0 0.0
2018-Jun-13 00:00N 47°38' W 122°20'0 0.0
2018-Jun-12 23:30N 47°38' W 122°20'0 0.0
2018-Jun-12 23:00N 47°38' W 122°20'0 0.0
2018-Jun-12 22:31N 47°38' W 122°20'0 0.0
2018-Jun-12 22:00N 47°38' W 122°20'0 0.0
2018-Jun-12 21:31N 47°38' W 122°20'0 0.0
2018-Jun-12 21:00N 47°38' W 122°20'0 0.0
2018-Jun-12 20:31N 47°38' W 122°20'0 0.0
2018-Jun-12 20:00N 47°38' W 122°20'0 0.0
2018-Jun-12 19:31N 47°38' W 122°20'0 0.0
2018-Jun-12 19:00N 47°38' W 122°20'0 0.0
2018-Jun-12 18:31N 47°38' W 122°20'0 0.0
2018-Jun-12 18:00N 47°38' W 122°20'0 0.0
2018-Jun-12 17:30N 47°38' W 122°20'0 0.0
2018-Jun-12 17:00N 47°38' W 122°20'0 0.0
2018-Jun-12 16:31N 47°38' W 122°20'0 0.0
2018-Jun-12 16:01N 47°38' W 122°20'0 0.0
2018-Jun-12 15:31N 47°38' W 122°20'0 0.0
2018-Jun-11 23:27N 47°38' W 122°20'0 0.0
2018-Jun-11 23:00N 47°38' W 122°20'0 0.0
2018-Jun-11 22:31N 47°38' W 122°20'0 0.0
2018-Jun-11 22:00N 47°38' W 122°20'0 0.0
2018-Jun-11 21:30N 47°38' W 122°20'0 0.0
2018-Jun-11 21:00N 47°38' W 122°20'0 0.0
2018-Jun-11 20:31N 47°38' W 122°20'0 0.0
2018-Jun-11 20:01N 47°38' W 122°20'0 0.0
2018-Jun-11 19:31N 47°38' W 122°20'0 0.0
2018-Jun-11 19:00N 47°38' W 122°20'0 0.0
2018-Jun-11 18:31N 47°38' W 122°20'0 0.0
2018-Jun-11 18:01N 47°38' W 122°20'0 0.0
2018-Jun-11 17:31N 47°38' W 122°20'0 0.0
2018-Jun-11 17:01N 47°38' W 122°20'0 0.0
2018-Jun-11 16:30N 47°38' W 122°20'0 0.0
2018-Jun-11 16:00N 47°38' W 122°20'0 0.0
2018-Jun-11 15:30N 47°38' W 122°20'0 0.0
2018-Jun-11 15:01N 47°38' W 122°20'0 0.0
2018-Jun-11 14:29N 47°38' W 122°20'0 0.0
2018-Jun-11 14:00N 47°38' W 122°20'0 0.0
2018-Jun-11 13:30N 47°38' W 122°20'0 0.0
2018-Jun-11 13:00N 47°38' W 122°20'0 0.0
2018-Jun-11 12:30N 47°38' W 122°20'0 0.0
2018-Jun-11 12:00N 47°38' W 122°20'0 0.0
2018-Jun-11 11:30N 47°38' W 122°20'0 0.0
2018-Jun-11 11:00N 47°38' W 122°20'0 0.0
2018-Jun-11 10:30N 47°38' W 122°20'0 0.0
2018-Jun-11 10:00N 47°38' W 122°20'0 0.0
2018-Jun-11 09:30N 47°38' W 122°20'0 0.0
2018-Jun-11 09:00N 47°38' W 122°20'0 0.0
2018-Jun-11 08:30N 47°38' W 122°20'0 0.0
2018-Jun-11 08:00N 47°38' W 122°20'0 0.0
2018-Jun-11 07:30N 47°38' W 122°20'0 0.0
2018-Jun-11 07:00N 47°38' W 122°20'0 0.0
2018-Jun-11 06:30N 47°38' W 122°20'0 0.0
2018-Jun-11 06:00N 47°38' W 122°20'0 0.0
2018-Jun-11 05:30N 47°38' W 122°20'0 0.0
2018-Jun-11 05:00N 47°38' W 122°20'0 0.0
2018-Jun-11 04:30N 47°38' W 122°20'0 0.0
2018-Jun-11 04:00N 47°38' W 122°20'0 0.0
2018-Jun-11 03:30N 47°38' W 122°20'0 0.0
2018-Jun-11 03:00N 47°38' W 122°20'0 0.0
2018-Jun-11 02:30N 47°38' W 122°20'0 0.0
2018-Jun-11 02:00N 47°38' W 122°20'0 0.0
2018-Jun-11 01:30N 47°38' W 122°20'0 0.0
2018-Jun-11 01:00N 47°38' W 122°20'0 0.0
2018-Jun-11 00:30N 47°38' W 122°20'0 0.0
2018-Jun-11 00:00N 47°38' W 122°20'0 0.0
2018-Jun-10 23:30N 47°38' W 122°20'0 0.0
2018-Jun-10 23:00N 47°38' W 122°20'0 0.0
2018-Jun-10 22:30N 47°38' W 122°20'0 0.0
2018-Jun-10 22:00N 47°38' W 122°20'0 0.0
2018-Jun-10 21:30N 47°38' W 122°20'0 0.0
2018-Jun-10 21:00N 47°38' W 122°20'0 0.0
2018-Jun-10 20:30N 47°38' W 122°20'0 0.0
2018-Jun-10 20:00N 47°38' W 122°20'0 0.0
2018-Jun-10 19:30N 47°38' W 122°20'0 0.0
2018-Jun-10 19:00N 47°38' W 122°20'0 0.0
2018-Jun-10 18:30N 47°38' W 122°20'0 0.0
2018-Jun-10 18:00N 47°38' W 122°20'0 0.0
2018-Jun-10 17:30N 47°38' W 122°20'0 0.0
2018-Jun-10 17:00N 47°38' W 122°20'0 0.0
2018-Jun-10 16:30N 47°38' W 122°20'0 0.0
2018-Jun-10 16:00N 47°38' W 122°20'0 0.0
2018-Jun-10 15:30N 47°38' W 122°20'0 0.0
2018-Jun-10 15:00N 47°38' W 122°20'0 0.0
2018-Jun-10 14:00N 47°38' W 122°20'0 0.0
2018-Jun-10 13:30N 47°38' W 122°20'0 0.0
2018-Jun-10 13:00N 47°38' W 122°20'0 0.0
2018-Jun-10 12:30N 47°38' W 122°20'0 0.0
2018-Jun-10 12:00N 47°38' W 122°20'0 0.0
2018-Jun-10 11:30N 47°38' W 122°20'0 0.0
2018-Jun-10 11:00N 47°38' W 122°20'0 0.0
2018-Jun-10 10:30N 47°38' W 122°20'0 0.0
2018-Jun-10 10:00N 47°38' W 122°20'0 0.0
2018-Jun-10 09:30N 47°38' W 122°20'0 0.0
2018-Jun-10 09:00N 47°38' W 122°20'0 0.0
2018-Jun-10 08:30N 47°38' W 122°20'0 0.0
2018-Jun-10 08:00N 47°38' W 122°20'0 0.0
2018-Jun-10 07:30N 47°38' W 122°20'0 0.0
2018-Jun-10 07:00N 47°38' W 122°20'0 0.0
2018-Jun-10 06:30N 47°38' W 122°20'0 0.0
2018-Jun-10 06:00N 47°38' W 122°20'0 0.0
2018-Jun-10 05:30N 47°38' W 122°20'0 0.0
2018-Jun-10 05:00N 47°38' W 122°20'0 0.0
2018-Jun-10 04:30N 47°38' W 122°20'0 0.0
2018-Jun-10 04:00N 47°38' W 122°20'0 0.0
2018-Jun-10 03:30N 47°38' W 122°20'0 0.0
2018-Jun-10 03:00N 47°38' W 122°20'0 0.0
2018-Jun-10 02:30N 47°38' W 122°20'0 0.0
2018-Jun-10 02:00N 47°38' W 122°20'0 0.0
2018-Jun-10 01:30N 47°38' W 122°20'0 0.0
2018-Jun-10 01:00N 47°38' W 122°20'0 0.0
2018-Jun-10 00:30N 47°38' W 122°20'0 0.0
2018-Jun-10 00:00N 47°38' W 122°20'0 0.0
2018-Jun-09 23:30N 47°38' W 122°20'0 0.0
2018-Jun-09 23:00N 47°38' W 122°20'0 0.0
2018-Jun-09 22:30N 47°38' W 122°20'0 0.0
2018-Jun-09 22:00N 47°38' W 122°20'0 0.0
2018-Jun-09 21:30N 47°38' W 122°20'0 0.0
2018-Jun-09 21:00N 47°38' W 122°20'0 0.0
2018-Jun-09 20:30N 47°38' W 122°20'0 0.0
2018-Jun-09 20:00N 47°38' W 122°20'0 0.0
2018-Jun-09 19:30N 47°38' W 122°20'0 0.0
2018-Jun-09 19:00N 47°38' W 122°20'0 0.0
2018-Jun-09 18:30N 47°38' W 122°20'0 0.0
2018-Jun-09 18:00N 47°38' W 122°20'0 0.0
2018-Jun-09 17:30N 47°38' W 122°20'0 0.0
2018-Jun-09 17:00N 47°38' W 122°20'0 0.0
2018-Jun-09 16:30N 47°38' W 122°20'0 0.0
2018-Jun-09 16:00N 47°38' W 122°20'0 0.0
2018-Jun-09 15:00N 47°38' W 122°20'0 0.0
2018-Jun-09 14:30N 47°38' W 122°20'0 0.0
2018-Jun-09 14:00N 47°38' W 122°20'0 0.0
2018-Jun-09 13:30N 47°38' W 122°20'0 0.0
2018-Jun-09 13:00N 47°38' W 122°20'0 0.0
2018-Jun-09 12:30N 47°38' W 122°20'0 0.0
2018-Jun-09 12:00N 47°38' W 122°20'0 0.0
2018-Jun-09 11:30N 47°38' W 122°20'0 0.0
2018-Jun-09 11:00N 47°38' W 122°20'0 0.0
2018-Jun-09 10:30N 47°38' W 122°20'0 0.0
2018-Jun-09 10:00N 47°38' W 122°20'0 0.0
2018-Jun-09 09:30N 47°38' W 122°20'0 0.0
2018-Jun-09 09:00N 47°38' W 122°20'0 0.0
2018-Jun-09 08:30N 47°38' W 122°20'0 0.0
2018-Jun-09 08:00N 47°38' W 122°20'0 0.0
2018-Jun-09 07:30N 47°38' W 122°20'0 0.0
2018-Jun-09 07:00N 47°38' W 122°20'0 0.0
2018-Jun-09 06:30N 47°38' W 122°20'0 0.0
2018-Jun-09 06:00N 47°38' W 122°20'0 0.0
2018-Jun-09 05:30N 47°38' W 122°20'0 0.0
2018-Jun-09 05:00N 47°38' W 122°20'0 0.0
2018-Jun-09 04:30N 47°38' W 122°20'0 0.0
2018-Jun-09 04:00N 47°38' W 122°20'0 0.0
2018-Jun-09 03:30N 47°38' W 122°20'0 0.0
2018-Jun-09 03:00N 47°38' W 122°20'0 0.0
2018-Jun-09 02:30N 47°38' W 122°20'0 0.0
2018-Jun-09 02:00N 47°38' W 122°20'0 0.0
2018-Jun-09 01:30N 47°38' W 122°20'0 0.0
2018-Jun-09 01:00N 47°38' W 122°20'0 0.0
2018-Jun-09 00:30N 47°38' W 122°20'0 0.0
2018-Jun-09 00:00N 47°38' W 122°20'0 0.0
2018-Jun-08 23:30N 47°38' W 122°20'0 0.0
2018-Jun-08 23:00N 47°38' W 122°20'0 0.0
2018-Jun-08 22:30N 47°38' W 122°20'0 0.0
2018-Jun-08 22:00N 47°38' W 122°20'0 0.0
2018-Jun-08 21:30N 47°38' W 122°20'0 0.0
2018-Jun-08 21:00N 47°38' W 122°20'0 0.0
2018-Jun-08 20:30N 47°38' W 122°20'0 0.0
2018-Jun-08 20:00N 47°38' W 122°20'0 0.0
2018-Jun-08 19:30N 47°38' W 122°20'0 0.0
2018-Jun-08 19:00N 47°38' W 122°20'0 0.0
2018-Jun-08 18:30N 47°38' W 122°20'0 0.0
2018-Jun-08 18:00N 47°38' W 122°20'0 0.0
2018-Jun-08 17:30N 47°38' W 122°20'0 0.0
2018-Jun-08 17:00N 47°38' W 122°20'0 0.0
2018-Jun-08 16:30N 47°38' W 122°20'0 0.0
2018-Jun-08 16:00N 47°38' W 122°20'0 0.0
2018-Jun-08 15:30N 47°38' W 122°20'0 0.0
2018-Jun-08 15:00N 47°38' W 122°20'0 0.0
2018-Jun-08 14:30N 47°38' W 122°20'0 0.0
2018-Jun-08 14:00N 47°38' W 122°20'0 0.0
2018-Jun-08 13:30N 47°38' W 122°20'0 0.0
2018-Jun-08 13:00N 47°38' W 122°20'0 0.0
2018-Jun-08 12:30N 47°38' W 122°20'0 0.0
2018-Jun-08 12:00N 47°38' W 122°20'0 0.0
2018-Jun-08 11:30N 47°38' W 122°20'0 0.0
2018-Jun-08 11:00N 47°38' W 122°20'0 0.0
2018-Jun-08 10:30N 47°38' W 122°20'0 0.0
2018-Jun-08 10:00N 47°38' W 122°20'0 0.0
2018-Jun-08 09:30N 47°38' W 122°20'0 0.0
2018-Jun-08 09:00N 47°38' W 122°20'0 0.0
2018-Jun-08 08:30N 47°38' W 122°20'0 0.0
2018-Jun-08 08:00N 47°38' W 122°20'0 0.0
2018-Jun-08 07:30N 47°38' W 122°20'0 0.0
2018-Jun-08 07:00N 47°38' W 122°20'0 0.0
2018-Jun-08 06:30N 47°38' W 122°20'0 0.0
2018-Jun-08 06:00N 47°38' W 122°20'0 0.0
2018-Jun-08 05:30N 47°38' W 122°20'0 0.0
2018-Jun-08 05:00N 47°38' W 122°20'  
Track history (hours):
 
Tides and Currents Weather Stations Pressure Air Temp Water Temp Dewpoint Dewpoint Depression Visibility Wind Speed Wind Dir Waves Ship Positions

Polar Sea

Owner: WARNESS, VIDAR, SEATTLE, WA. More information available from US FCC via Universal Licensing System and Coast Guard Vessel Documentation Center.

Last reported at 2018-Jun-18 04:45 UTC. Time now 2018-Jul-20 14:05 UTC.
Position N 51°11' W 130°14'.
Warning: this ship's position is 32 days out of date.

Length 31 m; draft 4 m.

Type: Fishing. MMSI: 303457000.

Date/timePositionNaut miles runAvg speedWind from/ knotsBaromVisibWave heightAir tempDewpointWater temp
2018-Jun-18 04:45N 51°11' W 130°14'3 8.4
2018-Jun-18 04:23N 51°09' W 130°10'156 8.1
2018-Jun-17 09:08N 49°25' W 127°09'1 8.4
2018-Jun-17 08:59N 49°24' W 127°07'4 8.5
2018-Jun-17 08:30N 49°22' W 127°02'4 8.3
2018-Jun-17 08:00N 49°19' W 126°57'4 8.2
2018-Jun-17 07:30N 49°17' W 126°52'4 8.3
2018-Jun-17 06:58N 49°14' W 126°47'4 8.7
2018-Jun-17 06:31N 49°12' W 126°41'4 8.5
2018-Jun-17 06:01N 49°10' W 126°36'4 8.3
2018-Jun-17 05:30N 49°09' W 126°30'4 8.6
2018-Jun-17 05:00N 49°06' W 126°24'4 8.7
2018-Jun-17 04:30N 49°03' W 126°19'5 9.0
2018-Jun-17 03:58N 49°01' W 126°13'4 9.0
2018-Jun-17 03:30N 48°58' W 126°08'4 8.8
2018-Jun-17 03:01N 48°56' W 126°03'5 9.0
2018-Jun-17 02:31N 48°53' W 125°57'5 9.2
2018-Jun-17 02:01N 48°50' W 125°52'5 9.0
2018-Jun-17 01:30N 48°48' W 125°46'5 9.0
2018-Jun-17 01:00N 48°46' W 125°39'4 8.8
2018-Jun-17 00:31N 48°45' W 125°33'4 8.8
2018-Jun-17 00:01N 48°44' W 125°27'5 9.0
2018-Jun-16 23:31N 48°42' W 125°20'4 8.6
2018-Jun-16 23:00N 48°41' W 125°14'4 8.6
2018-Jun-16 22:30N 48°39' W 125°08'4 8.4
2018-Jun-16 22:00N 48°38' W 125°02'4 8.6
2018-Jun-16 21:31N 48°36' W 124°56'5 8.9
2018-Jun-16 20:59N 48°35' W 124°49'5 9.4
2018-Jun-16 20:30N 48°33' W 124°43'5 9.9
2018-Jun-16 20:01N 48°31' W 124°36'510.5
2018-Jun-16 19:31N 48°29' W 124°29'610.9
2018-Jun-16 19:00N 48°27' W 124°21'611.9
2018-Jun-16 18:30N 48°25' W 124°13'612.2
2018-Jun-16 18:00N 48°22' W 124°05'712.1
2018-Jun-16 17:28N 48°20' W 123°55'3412.6
2018-Jun-16 14:44N 48°13' W 123°04'411.7
2018-Jun-16 14:24N 48°13' W 122°58'510.9
2018-Jun-16 13:55N 48°12' W 122°51'13 8.9
2018-Jun-16 12:27N 48°03' W 122°37'5 9.1
2018-Jun-16 11:51N 47°58' W 122°33'3 9.6
2018-Jun-16 11:31N 47°56' W 122°29'5 9.7
2018-Jun-16 11:00N 47°51' W 122°27'510.0
2018-Jun-16 10:31N 47°46' W 122°25'510.0
2018-Jun-16 10:01N 47°41' W 122°25'2 3.8
2018-Jun-16 09:31N 47°40' W 122°23'2 4.6
2018-Jun-16 09:01N 47°39' W 122°21'1 1.6
2018-Jun-16 08:30N 47°38' W 122°20'0 0.0
2018-Jun-16 08:01N 47°38' W 122°20'0 0.0
2018-Jun-16 07:31N 47°38' W 122°20'0 0.0
2018-Jun-16 07:00N 47°38' W 122°20'0 0.0
2018-Jun-16 06:30N 47°38' W 122°20'0 0.0
2018-Jun-16 06:01N 47°38' W 122°20'0 0.0
2018-Jun-16 05:30N 47°38' W 122°20'0 0.0
2018-Jun-16 05:01N 47°38' W 122°20'0 0.0
2018-Jun-16 04:31N 47°38' W 122°20'0 0.0
2018-Jun-16 04:00N 47°38' W 122°20'0 0.0
2018-Jun-16 03:30N 47°38' W 122°20'0 0.0
2018-Jun-16 03:01N 47°38' W 122°20'0 0.0
2018-Jun-16 02:31N 47°38' W 122°20'0 0.0
2018-Jun-16 02:00N 47°38' W 122°20'0 0.0
2018-Jun-16 01:30N 47°38' W 122°20'0 0.0
2018-Jun-16 01:01N 47°38' W 122°20'0 0.0
2018-Jun-16 00:30N 47°38' W 122°20'0 0.0
2018-Jun-16 00:00N 47°38' W 122°20'0 0.0
2018-Jun-15 23:30N 47°38' W 122°20'0 0.0
2018-Jun-15 23:00N 47°38' W 122°20'0 0.0
2018-Jun-15 22:30N 47°38' W 122°20'0 0.0
2018-Jun-15 22:00N 47°38' W 122°20'0 0.0
2018-Jun-15 21:30N 47°38' W 122°20'0 0.0
2018-Jun-15 21:00N 47°38' W 122°20'0 0.0
2018-Jun-15 20:30N 47°38' W 122°20'0 0.0
2018-Jun-15 20:00N 47°38' W 122°20'0 0.0
2018-Jun-15 19:30N 47°38' W 122°20'0 0.0
2018-Jun-15 19:00N 47°38' W 122°20'0 0.0
2018-Jun-15 18:30N 47°38' W 122°20'0 0.0
2018-Jun-15 18:00N 47°38' W 122°20'0 0.0
2018-Jun-15 17:30N 47°38' W 122°20'0 0.0
2018-Jun-15 17:00N 47°38' W 122°20'0 0.0
2018-Jun-15 16:30N 47°38' W 122°20'0 0.0
2018-Jun-15 16:00N 47°38' W 122°20'0 0.0
2018-Jun-15 15:30N 47°38' W 122°20'0 0.0
2018-Jun-15 15:00N 47°38' W 122°20'0 0.0
2018-Jun-15 14:30N 47°38' W 122°20'0 0.0
2018-Jun-15 14:00N 47°38' W 122°20'0 0.0
2018-Jun-15 13:30N 47°38' W 122°20'0 0.0
2018-Jun-15 13:00N 47°38' W 122°20'0 0.0
2018-Jun-15 12:30N 47°38' W 122°20'0 0.0
2018-Jun-15 12:00N 47°38' W 122°20'0 0.0
2018-Jun-15 11:30N 47°38' W 122°20'0 0.0
2018-Jun-15 11:00N 47°38' W 122°20'0 0.0
2018-Jun-15 10:30N 47°38' W 122°20'0 0.0
2018-Jun-15 10:00N 47°38' W 122°20'0 0.0
2018-Jun-15 09:30N 47°38' W 122°20'0 0.0
2018-Jun-15 09:00N 47°38' W 122°20'0 0.0
2018-Jun-15 08:30N 47°38' W 122°20'0 0.0
2018-Jun-15 08:00N 47°38' W 122°20'0 0.0
2018-Jun-15 07:30N 47°38' W 122°20'0 0.0
2018-Jun-15 07:00N 47°38' W 122°20'0 0.0
2018-Jun-15 06:30N 47°38' W 122°20'0 0.0
2018-Jun-15 06:00N 47°38' W 122°20'0 0.0
2018-Jun-15 05:30N 47°38' W 122°20'0 0.0
2018-Jun-15 05:00N 47°38' W 122°20'0 0.0
2018-Jun-15 04:30N 47°38' W 122°20'0 0.0
2018-Jun-15 04:00N 47°38' W 122°20'0 0.0
2018-Jun-15 03:30N 47°38' W 122°20'0 0.0
2018-Jun-15 03:00N 47°38' W 122°20'0 0.0
2018-Jun-15 02:30N 47°38' W 122°20'0 0.0
2018-Jun-15 02:00N 47°38' W 122°20'0 0.0
2018-Jun-15 01:30N 47°38' W 122°20'0 0.0
2018-Jun-15 01:00N 47°38' W 122°20'0 0.0
2018-Jun-15 00:30N 47°38' W 122°20'0 0.0
2018-Jun-15 00:00N 47°38' W 122°20'0 0.0
2018-Jun-14 23:30N 47°38' W 122°20'0 0.0
2018-Jun-14 23:00N 47°38' W 122°20'0 0.0
2018-Jun-14 22:30N 47°38' W 122°20'0 0.0
2018-Jun-14 22:00N 47°38' W 122°20'0 0.0
2018-Jun-14 21:30N 47°38' W 122°20'0 0.0
2018-Jun-14 21:00N 47°38' W 122°20'0 0.0
2018-Jun-14 20:30N 47°38' W 122°20'0 0.0
2018-Jun-14 20:00N 47°38' W 122°20'0 0.0
2018-Jun-14 19:30N 47°38' W 122°20'0 0.0
2018-Jun-14 19:00N 47°38' W 122°20'0 0.0
2018-Jun-14 18:30N 47°38' W 122°20'0 0.0
2018-Jun-14 18:00N 47°38' W 122°20'0 0.0
2018-Jun-14 17:30N 47°38' W 122°20'0 0.0
2018-Jun-14 17:00N 47°38' W 122°20'0 0.0
2018-Jun-14 16:30N 47°38' W 122°20'0 0.0
2018-Jun-14 16:00N 47°38' W 122°20'0 0.0
2018-Jun-14 15:30N 47°38' W 122°20'0 0.0
2018-Jun-14 15:00N 47°38' W 122°20'0 0.0
2018-Jun-14 14:30N 47°38' W 122°20'0 0.0
2018-Jun-14 14:00N 47°38' W 122°20'0 0.0
2018-Jun-14 13:30N 47°38' W 122°20'0 0.0
2018-Jun-14 13:00N 47°38' W 122°20'0 0.0
2018-Jun-14 12:30N 47°38' W 122°20'0 0.0
2018-Jun-14 12:00N 47°38' W 122°20'0 0.0
2018-Jun-14 11:30N 47°38' W 122°20'0 0.0
2018-Jun-14 11:00N 47°38' W 122°20'0 0.0
2018-Jun-14 10:30N 47°38' W 122°20'0 0.0
2018-Jun-14 10:00N 47°38' W 122°20'0 0.0
2018-Jun-14 09:30N 47°38' W 122°20'0 0.0
2018-Jun-14 09:00N 47°38' W 122°20'0 0.0
2018-Jun-14 08:30N 47°38' W 122°20'0 0.0
2018-Jun-14 08:00N 47°38' W 122°20'0 0.0
2018-Jun-14 07:31N 47°38' W 122°20'0 0.0
2018-Jun-14 07:00N 47°38' W 122°20'0 0.0
2018-Jun-14 06:30N 47°38' W 122°20'0 0.0
2018-Jun-14 06:00N 47°38' W 122°20'0 0.0
2018-Jun-14 05:31N 47°38' W 122°20'0 0.0
2018-Jun-14 05:00N 47°38' W 122°20'0 0.0
2018-Jun-14 04:30N 47°38' W 122°20'0 0.0
2018-Jun-14 04:00N 47°38' W 122°20'0 0.0
2018-Jun-14 03:31N 47°38' W 122°20'0 0.0
2018-Jun-14 03:00N 47°38' W 122°20'0 0.0
2018-Jun-14 02:30N 47°38' W 122°20'0 0.0
2018-Jun-14 02:01N 47°38' W 122°20'0 0.0
2018-Jun-14 01:30N 47°38' W 122°20'0 0.0
2018-Jun-14 01:01N 47°38' W 122°20'0 0.0
2018-Jun-14 00:31N 47°38' W 122°20'0 0.0
2018-Jun-14 00:00N 47°38' W 122°20'0 0.0
2018-Jun-13 23:31N 47°38' W 122°20'0 0.0
2018-Jun-13 23:00N 47°38' W 122°20'0 0.0
2018-Jun-13 22:30N 47°38' W 122°20'0 0.0
2018-Jun-13 22:01N 47°38' W 122°20'0 0.0
2018-Jun-13 21:30N 47°38' W 122°20'0 0.0
2018-Jun-13 21:00N 47°38' W 122°20'0 0.0
2018-Jun-13 20:30N 47°38' W 122°20'0 0.0
2018-Jun-13 20:00N 47°38' W 122°20'0 0.0
2018-Jun-13 19:31N 47°38' W 122°20'0 0.0
2018-Jun-13 19:01N 47°38' W 122°20'0 0.0
2018-Jun-13 18:30N 47°38' W 122°20'0 0.0
2018-Jun-13 18:00N 47°38' W 122°20'0 0.0
2018-Jun-13 17:30N 47°38' W 122°20'0 0.0
2018-Jun-13 17:00N 47°38' W 122°20'0 0.0
2018-Jun-13 16:30N 47°38' W 122°20'0 0.0
2018-Jun-13 16:00N 47°38' W 122°20'0 0.0
2018-Jun-13 15:30N 47°38' W 122°20'0 0.0
2018-Jun-13 15:00N 47°38' W 122°20'0 0.0
2018-Jun-13 14:30N 47°38' W 122°20'0 0.0
2018-Jun-13 13:59N 47°38' W 122°20'0 0.0
2018-Jun-13 13:30N 47°38' W 122°20'0 0.0
2018-Jun-13 13:00N 47°38' W 122°20'0 0.0
2018-Jun-13 12:30N 47°38' W 122°20'0 0.0
2018-Jun-13 12:00N 47°38' W 122°20'0 0.0
2018-Jun-13 11:30N 47°38' W 122°20'0 0.0
2018-Jun-13 11:00N 47°38' W 122°20'0 0.0
2018-Jun-13 10:30N 47°38' W 122°20'0 0.0
2018-Jun-13 10:00N 47°38' W 122°20'0 0.0
2018-Jun-13 09:30N 47°38' W 122°20'0 0.0
2018-Jun-13 09:00N 47°38' W 122°20'0 0.0
2018-Jun-13 08:30N 47°38' W 122°20'0 0.0
2018-Jun-13 08:00N 47°38' W 122°20'0 0.0
2018-Jun-13 07:30N 47°38' W 122°20'0 0.0
2018-Jun-13 07:00N 47°38' W 122°20'0 0.0
2018-Jun-13 06:30N 47°38' W 122°20'0 0.0
2018-Jun-13 06:00N 47°38' W 122°20'0 0.0
2018-Jun-13 05:30N 47°38' W 122°20'0 0.0
2018-Jun-13 05:00N 47°38' W 122°20'0 0.0
2018-Jun-13 04:30N 47°38' W 122°20'0 0.0
2018-Jun-13 04:00N 47°38' W 122°20'0 0.0
2018-Jun-13 03:30N 47°38' W 122°20'0 0.0
2018-Jun-13 03:00N 47°38' W 122°20'0 0.0
2018-Jun-13 02:30N 47°38' W 122°20'0 0.0
2018-Jun-13 02:00N 47°38' W 122°20'0 0.0
2018-Jun-13 01:30N 47°38' W 122°20'0 0.0
2018-Jun-13 01:00N 47°38' W 122°20'0 0.0
2018-Jun-13 00:30N 47°38' W 122°20'0 0.0
2018-Jun-13 00:00N 47°38' W 122°20'0 0.0
2018-Jun-12 23:30N 47°38' W 122°20'0 0.0
2018-Jun-12 23:00N 47°38' W 122°20'0 0.0
2018-Jun-12 22:31N 47°38' W 122°20'0 0.0
2018-Jun-12 22:00N 47°38' W 122°20'0 0.0
2018-Jun-12 21:31N 47°38' W 122°20'0 0.0
2018-Jun-12 21:00N 47°38' W 122°20'0 0.0
2018-Jun-12 20:31N 47°38' W 122°20'0 0.0
2018-Jun-12 20:00N 47°38' W 122°20'0 0.0
2018-Jun-12 19:31N 47°38' W 122°20'0 0.0
2018-Jun-12 19:00N 47°38' W 122°20'0 0.0
2018-Jun-12 18:31N 47°38' W 122°20'0 0.0
2018-Jun-12 18:00N 47°38' W 122°20'0 0.0
2018-Jun-12 17:30N 47°38' W 122°20'0 0.0
2018-Jun-12 17:00N 47°38' W 122°20'0 0.0
2018-Jun-12 16:31N 47°38' W 122°20'0 0.0
2018-Jun-12 16:01N 47°38' W 122°20'0 0.0
2018-Jun-12 15:31N 47°38' W 122°20'0 0.0
2018-Jun-11 23:27N 47°38' W 122°20'0 0.0
2018-Jun-11 23:00N 47°38' W 122°20'0 0.0
2018-Jun-11 22:31N 47°38' W 122°20'0 0.0
2018-Jun-11 22:00N 47°38' W 122°20'0 0.0
2018-Jun-11 21:30N 47°38' W 122°20'0 0.0
2018-Jun-11 21:00N 47°38' W 122°20'0 0.0
2018-Jun-11 20:31N 47°38' W 122°20'0 0.0
2018-Jun-11 20:01N 47°38' W 122°20'0 0.0
2018-Jun-11 19:31N 47°38' W 122°20'0 0.0
2018-Jun-11 19:00N 47°38' W 122°20'0 0.0
2018-Jun-11 18:31N 47°38' W 122°20'0 0.0
2018-Jun-11 18:01N 47°38' W 122°20'0 0.0
2018-Jun-11 17:31N 47°38' W 122°20'0 0.0
2018-Jun-11 17:01N 47°38' W 122°20'0 0.0
2018-Jun-11 16:30N 47°38' W 122°20'0 0.0
2018-Jun-11 16:00N 47°38' W 122°20'0 0.0
2018-Jun-11 15:30N 47°38' W 122°20'0 0.0
2018-Jun-11 15:01N 47°38' W 122°20'0 0.0
2018-Jun-11 14:29N 47°38' W 122°20'0 0.0
2018-Jun-11 14:00N 47°38' W 122°20'0 0.0
2018-Jun-11 13:30N 47°38' W 122°20'0 0.0
2018-Jun-11 13:00N 47°38' W 122°20'0 0.0
2018-Jun-11 12:30N 47°38' W 122°20'0 0.0
2018-Jun-11 12:00N 47°38' W 122°20'0 0.0
2018-Jun-11 11:30N 47°38' W 122°20'0 0.0
2018-Jun-11 11:00N 47°38' W 122°20'0 0.0
2018-Jun-11 10:30N 47°38' W 122°20'0 0.0
2018-Jun-11 10:00N 47°38' W 122°20'0 0.0
2018-Jun-11 09:30N 47°38' W 122°20'0 0.0
2018-Jun-11 09:00N 47°38' W 122°20'0 0.0
2018-Jun-11 08:30N 47°38' W 122°20'0 0.0
2018-Jun-11 08:00N 47°38' W 122°20'0 0.0
2018-Jun-11 07:30N 47°38' W 122°20'0 0.0
2018-Jun-11 07:00N 47°38' W 122°20'0 0.0
2018-Jun-11 06:30N 47°38' W 122°20'0 0.0
2018-Jun-11 06:00N 47°38' W 122°20'0 0.0
2018-Jun-11 05:30N 47°38' W 122°20'0 0.0
2018-Jun-11 05:00N 47°38' W 122°20'0 0.0
2018-Jun-11 04:30N 47°38' W 122°20'0 0.0
2018-Jun-11 04:00N 47°38' W 122°20'0 0.0
2018-Jun-11 03:30N 47°38' W 122°20'0 0.0
2018-Jun-11 03:00N 47°38' W 122°20'0 0.0
2018-Jun-11 02:30N 47°38' W 122°20'0 0.0
2018-Jun-11 02:00N 47°38' W 122°20'0 0.0
2018-Jun-11 01:30N 47°38' W 122°20'0 0.0
2018-Jun-11 01:00N 47°38' W 122°20'0 0.0
2018-Jun-11 00:30N 47°38' W 122°20'0 0.0
2018-Jun-11 00:00N 47°38' W 122°20'0 0.0
2018-Jun-10 23:30N 47°38' W 122°20'0 0.0
2018-Jun-10 23:00N 47°38' W 122°20'0 0.0
2018-Jun-10 22:30N 47°38' W 122°20'0 0.0
2018-Jun-10 22:00N 47°38' W 122°20'0 0.0
2018-Jun-10 21:30N 47°38' W 122°20'0 0.0
2018-Jun-10 21:00N 47°38' W 122°20'0 0.0
2018-Jun-10 20:30N 47°38' W 122°20'0 0.0
2018-Jun-10 20:00N 47°38' W 122°20'0 0.0
2018-Jun-10 19:30N 47°38' W 122°20'0 0.0
2018-Jun-10 19:00N 47°38' W 122°20'0 0.0
2018-Jun-10 18:30N 47°38' W 122°20'0 0.0
2018-Jun-10 18:00N 47°38' W 122°20'0 0.0
2018-Jun-10 17:30N 47°38' W 122°20'0 0.0
2018-Jun-10 17:00N 47°38' W 122°20'0 0.0
2018-Jun-10 16:30N 47°38' W 122°20'0 0.0
2018-Jun-10 16:00N 47°38' W 122°20'0 0.0
2018-Jun-10 15:30N 47°38' W 122°20'0 0.0
2018-Jun-10 15:00N 47°38' W 122°20'0 0.0
2018-Jun-10 14:00N 47°38' W 122°20'0 0.0
2018-Jun-10 13:30N 47°38' W 122°20'0 0.0
2018-Jun-10 13:00N 47°38' W 122°20'0 0.0
2018-Jun-10 12:30N 47°38' W 122°20'0 0.0
2018-Jun-10 12:00N 47°38' W 122°20'0 0.0
2018-Jun-10 11:30N 47°38' W 122°20'0 0.0
2018-Jun-10 11:00N 47°38' W 122°20'0 0.0
2018-Jun-10 10:30N 47°38' W 122°20'0 0.0
2018-Jun-10 10:00N 47°38' W 122°20'0 0.0
2018-Jun-10 09:30N 47°38' W 122°20'0 0.0
2018-Jun-10 09:00N 47°38' W 122°20'0 0.0
2018-Jun-10 08:30N 47°38' W 122°20'0 0.0
2018-Jun-10 08:00N 47°38' W 122°20'0 0.0
2018-Jun-10 07:30N 47°38' W 122°20'0 0.0
2018-Jun-10 07:00N 47°38' W 122°20'0 0.0
2018-Jun-10 06:30N 47°38' W 122°20'0 0.0
2018-Jun-10 06:00N 47°38' W 122°20'0 0.0
2018-Jun-10 05:30N 47°38' W 122°20'0 0.0
2018-Jun-10 05:00N 47°38' W 122°20'0 0.0
2018-Jun-10 04:30N 47°38' W 122°20'0 0.0
2018-Jun-10 04:00N 47°38' W 122°20'0 0.0
2018-Jun-10 03:30N 47°38' W 122°20'0 0.0
2018-Jun-10 03:00N 47°38' W 122°20'0 0.0
2018-Jun-10 02:30N 47°38' W 122°20'0 0.0
2018-Jun-10 02:00N 47°38' W 122°20'0 0.0
2018-Jun-10 01:30N 47°38' W 122°20'0 0.0
2018-Jun-10 01:00N 47°38' W 122°20'0 0.0
2018-Jun-10 00:30N 47°38' W 122°20'0 0.0
2018-Jun-10 00:00N 47°38' W 122°20'0 0.0
2018-Jun-09 23:30N 47°38' W 122°20'0 0.0
2018-Jun-09 23:00N 47°38' W 122°20'0 0.0
2018-Jun-09 22:30N 47°38' W 122°20'0 0.0
2018-Jun-09 22:00N 47°38' W 122°20'0 0.0
2018-Jun-09 21:30N 47°38' W 122°20'0 0.0
2018-Jun-09 21:00N 47°38' W 122°20'0 0.0
2018-Jun-09 20:30N 47°38' W 122°20'0 0.0
2018-Jun-09 20:00N 47°38' W 122°20'0 0.0
2018-Jun-09 19:30N 47°38' W 122°20'0 0.0
2018-Jun-09 19:00N 47°38' W 122°20'0 0.0
2018-Jun-09 18:30N 47°38' W 122°20'0 0.0
2018-Jun-09 18:00N 47°38' W 122°20'0 0.0
2018-Jun-09 17:30N 47°38' W 122°20'0 0.0
2018-Jun-09 17:00N 47°38' W 122°20'0 0.0
2018-Jun-09 16:30N 47°38' W 122°20'0 0.0
2018-Jun-09 16:00N 47°38' W 122°20'0 0.0
2018-Jun-09 15:00N 47°38' W 122°20'0 0.0
2018-Jun-09 14:30N 47°38' W 122°20'0 0.0
2018-Jun-09 14:00N 47°38' W 122°20'0 0.0
2018-Jun-09 13:30N 47°38' W 122°20'0 0.0
2018-Jun-09 13:00N 47°38' W 122°20'0 0.0
2018-Jun-09 12:30N 47°38' W 122°20'0 0.0
2018-Jun-09 12:00N 47°38' W 122°20'0 0.0
2018-Jun-09 11:30N 47°38' W 122°20'0 0.0
2018-Jun-09 11:00N 47°38' W 122°20'0 0.0
2018-Jun-09 10:30N 47°38' W 122°20'0 0.0
2018-Jun-09 10:00N 47°38' W 122°20'0 0.0
2018-Jun-09 09:30N 47°38' W 122°20'0 0.0
2018-Jun-09 09:00N 47°38' W 122°20'0 0.0
2018-Jun-09 08:30N 47°38' W 122°20'0 0.0
2018-Jun-09 08:00N 47°38' W 122°20'0 0.0
2018-Jun-09 07:30N 47°38' W 122°20'0 0.0
2018-Jun-09 07:00N 47°38' W 122°20'0 0.0
2018-Jun-09 06:30N 47°38' W 122°20'0 0.0
2018-Jun-09 06:00N 47°38' W 122°20'0 0.0
2018-Jun-09 05:30N 47°38' W 122°20'0 0.0
2018-Jun-09 05:00N 47°38' W 122°20'0 0.0
2018-Jun-09 04:30N 47°38' W 122°20'0 0.0
2018-Jun-09 04:00N 47°38' W 122°20'0 0.0
2018-Jun-09 03:30N 47°38' W 122°20'0 0.0
2018-Jun-09 03:00N 47°38' W 122°20'0 0.0
2018-Jun-09 02:30N 47°38' W 122°20'0 0.0
2018-Jun-09 02:00N 47°38' W 122°20'0 0.0
2018-Jun-09 01:30N 47°38' W 122°20'0 0.0
2018-Jun-09 01:00N 47°38' W 122°20'0 0.0
2018-Jun-09 00:30N 47°38' W 122°20'0 0.0
2018-Jun-09 00:00N 47°38' W 122°20'0 0.0
2018-Jun-08 23:30N 47°38' W 122°20'0 0.0
2018-Jun-08 23:00N 47°38' W 122°20'0 0.0
2018-Jun-08 22:30N 47°38' W 122°20'0 0.0
2018-Jun-08 22:00N 47°38' W 122°20'0 0.0
2018-Jun-08 21:30N 47°38' W 122°20'0 0.0
2018-Jun-08 21:00N 47°38' W 122°20'0 0.0
2018-Jun-08 20:30N 47°38' W 122°20'0 0.0
2018-Jun-08 20:00N 47°38' W 122°20'0 0.0
2018-Jun-08 19:30N 47°38' W 122°20'0 0.0
2018-Jun-08 19:00N 47°38' W 122°20'0 0.0
2018-Jun-08 18:30N 47°38' W 122°20'0 0.0
2018-Jun-08 18:00N 47°38' W 122°20'0 0.0
2018-Jun-08 17:30N 47°38' W 122°20'0 0.0
2018-Jun-08 17:00N 47°38' W 122°20'0 0.0
2018-Jun-08 16:30N 47°38' W 122°20'0 0.0
2018-Jun-08 16:00N 47°38' W 122°20'0 0.0
2018-Jun-08 15:30N 47°38' W 122°20'0 0.0
2018-Jun-08 15:00N 47°38' W 122°20'0 0.0
2018-Jun-08 14:30N 47°38' W 122°20'0 0.0
2018-Jun-08 14:00N 47°38' W 122°20'0 0.0
2018-Jun-08 13:30N 47°38' W 122°20'0 0.0
2018-Jun-08 13:00N 47°38' W 122°20'0 0.0
2018-Jun-08 12:30N 47°38' W 122°20'0 0.0
2018-Jun-08 12:00N 47°38' W 122°20'0 0.0
2018-Jun-08 11:30N 47°38' W 122°20'0 0.0
2018-Jun-08 11:00N 47°38' W 122°20'0 0.0
2018-Jun-08 10:30N 47°38' W 122°20'0 0.0
2018-Jun-08 10:00N 47°38' W 122°20'0 0.0
2018-Jun-08 09:30N 47°38' W 122°20'0 0.0
2018-Jun-08 09:00N 47°38' W 122°20'0 0.0
2018-Jun-08 08:30N 47°38' W 122°20'0 0.0
2018-Jun-08 08:00N 47°38' W 122°20'0 0.0
2018-Jun-08 07:30N 47°38' W 122°20'0 0.0
2018-Jun-08 07:00N 47°38' W 122°20'0 0.0
2018-Jun-08 06:30N 47°38' W 122°20'0 0.0
2018-Jun-08 06:00N 47°38' W 122°20'0 0.0
2018-Jun-08 05:30N 47°38' W 122°20'0 0.0
2018-Jun-08 05:00N 47°38' W 122°20'  

Dump ship's entire track history